createdAt,value
2022-12-31T00:00:12.887Z,87
2022-12-31T00:00:55.394Z,87
2022-12-31T00:01:27.463Z,87
2022-12-31T00:01:59.679Z,87
2022-12-31T00:02:31.431Z,87
2022-12-31T00:03:04.058Z,87
2022-12-31T00:03:35.467Z,87
2022-12-31T00:04:07.294Z,87
2022-12-31T00:04:39.232Z,87
2022-12-31T00:05:11.926Z,87
2022-12-31T00:05:43.229Z,86
2022-12-31T00:06:15.287Z,86
2022-12-31T00:06:47.088Z,86
2022-12-31T00:07:19.287Z,86
2022-12-31T00:07:51.297Z,86
2022-12-31T00:08:23.080Z,86
2022-12-31T00:08:54.973Z,86
2022-12-31T00:09:27.133Z,86
2022-12-31T00:09:59.135Z,86
2022-12-31T00:10:31.525Z,86
2022-12-31T00:11:03.606Z,86
2022-12-31T00:11:34.927Z,86
2022-12-31T00:12:06.933Z,86
2022-12-31T00:12:39.017Z,86
2022-12-31T00:13:10.988Z,86
2022-12-31T00:13:27.060Z,86
2022-12-31T00:13:58.847Z,86
2022-12-31T00:14:43.088Z,86
2022-12-31T00:15:16.297Z,86
2022-12-31T00:15:46.762Z,86
2022-12-31T00:16:18.801Z,86
2022-12-31T00:16:50.974Z,86
2022-12-31T00:17:22.935Z,86
2022-12-31T00:17:54.657Z,86
2022-12-31T00:18:10.786Z,86
2022-12-31T00:18:54.669Z,86
2022-12-31T00:19:26.776Z,86
2022-12-31T00:19:58.719Z,86
2022-12-31T00:20:30.880Z,86
2022-12-31T00:21:03.129Z,86
2022-12-31T00:21:34.556Z,85
2022-12-31T00:22:06.434Z,85
2022-12-31T00:22:38.558Z,85
2022-12-31T00:23:10.469Z,85
2022-12-31T00:23:42.737Z,85
2022-12-31T00:24:14.349Z,85
2022-12-31T00:24:46.296Z,85
2022-12-31T00:25:18.712Z,85
2022-12-31T00:25:50.543Z,85
2022-12-31T00:26:22.655Z,85
2022-12-31T00:26:54.308Z,85
2022-12-31T00:27:10.476Z,85
2022-12-31T00:27:42.612Z,85
2022-12-31T00:27:58.409Z,85
2022-12-31T00:28:30.383Z,85
2022-12-31T00:29:03.005Z,85
2022-12-31T00:29:34.214Z,85
2022-12-31T00:30:07.131Z,85
2022-12-31T00:30:38.531Z,85
2022-12-31T00:31:10.227Z,85
2022-12-31T00:31:26.181Z,85
2022-12-31T00:31:58.209Z,85
2022-12-31T00:32:42.481Z,85
2022-12-31T00:33:14.167Z,85
2022-12-31T00:33:46.026Z,85
2022-12-31T00:34:18.187Z,85
2022-12-31T00:34:49.973Z,85
2022-12-31T00:35:22.521Z,85
2022-12-31T00:35:53.924Z,85
2022-12-31T00:36:10.184Z,85
2022-12-31T00:36:53.930Z,85
2022-12-31T00:37:25.861Z,85
2022-12-31T00:37:57.930Z,85
2022-12-31T00:38:29.975Z,85
2022-12-31T00:39:02.710Z,85
2022-12-31T00:39:33.891Z,85
2022-12-31T00:40:06.239Z,84
2022-12-31T00:40:38.077Z,84
2022-12-31T00:41:09.831Z,84
2022-12-31T00:41:42.060Z,85
2022-12-31T00:42:13.671Z,84
2022-12-31T00:42:45.626Z,84
2022-12-31T00:43:17.770Z,84
2022-12-31T00:43:49.640Z,84
2022-12-31T00:44:21.860Z,84
2022-12-31T00:44:53.601Z,84
2022-12-31T00:45:10.557Z,85
2022-12-31T00:45:41.738Z,84
2022-12-31T00:45:57.916Z,84
2022-12-31T00:46:29.744Z,84
2022-12-31T00:47:01.739Z,84
2022-12-31T00:47:33.571Z,84
2022-12-31T00:48:05.473Z,84
2022-12-31T00:48:37.454Z,84
2022-12-31T00:49:09.478Z,84
2022-12-31T00:49:25.408Z,84
2022-12-31T00:49:57.513Z,84
2022-12-31T00:50:41.806Z,84
2022-12-31T00:51:13.528Z,84
2022-12-31T00:51:45.311Z,84
2022-12-31T00:52:17.296Z,84
2022-12-31T00:52:49.381Z,84
2022-12-31T00:53:21.664Z,85
2022-12-31T00:53:53.344Z,85
2022-12-31T00:54:09.550Z,84
2022-12-31T00:54:53.164Z,84
2022-12-31T00:55:25.589Z,84
2022-12-31T00:55:57.334Z,84
2022-12-31T00:56:29.102Z,84
2022-12-31T00:57:01.376Z,84
2022-12-31T00:57:33.442Z,84
2022-12-31T00:58:05.412Z,84
2022-12-31T00:58:37.081Z,84
2022-12-31T00:59:09.172Z,84
2022-12-31T00:59:41.125Z,85
2022-12-31T01:00:14.189Z,85
2022-12-31T01:00:45.041Z,85
2022-12-31T01:01:17.042Z,85
2022-12-31T01:01:49.135Z,85
2022-12-31T01:02:21.252Z,85
2022-12-31T01:02:53.055Z,85
2022-12-31T01:03:09.082Z,85
2022-12-31T01:03:40.724Z,85
2022-12-31T01:03:56.977Z,85
2022-12-31T01:04:28.910Z,85
2022-12-31T01:05:01.106Z,85
2022-12-31T01:05:32.961Z,85
2022-12-31T01:06:06.226Z,85
2022-12-31T01:06:36.801Z,85
2022-12-31T01:07:08.747Z,85
2022-12-31T01:07:24.721Z,85
2022-12-31T01:07:56.780Z,85
2022-12-31T01:08:40.743Z,85
2022-12-31T01:09:13.141Z,85
2022-12-31T01:09:44.530Z,85
2022-12-31T01:10:16.810Z,85
2022-12-31T01:10:48.712Z,85
2022-12-31T01:11:20.981Z,85
2022-12-31T01:11:52.633Z,85
2022-12-31T01:12:08.588Z,85
2022-12-31T01:12:52.722Z,85
2022-12-31T01:13:24.561Z,85
2022-12-31T01:13:56.520Z,85
2022-12-31T01:14:28.465Z,85
2022-12-31T01:15:01.721Z,85
2022-12-31T01:15:32.649Z,85
2022-12-31T01:16:04.972Z,85
2022-12-31T01:16:36.237Z,85
2022-12-31T01:17:08.410Z,85
2022-12-31T01:17:24.412Z,85
2022-12-31T01:18:08.218Z,85
2022-12-31T01:18:40.276Z,85
2022-12-31T01:19:12.495Z,85
2022-12-31T01:19:44.061Z,85
2022-12-31T01:20:16.522Z,85
2022-12-31T01:20:48.240Z,85
2022-12-31T01:21:19.962Z,85
2022-12-31T01:21:52.477Z,85
2022-12-31T01:22:24.130Z,85
2022-12-31T01:22:56.006Z,85
2022-12-31T01:23:28.023Z,85
2022-12-31T01:24:00.006Z,85
2022-12-31T01:24:32.007Z,85
2022-12-31T01:25:04.858Z,85
2022-12-31T01:25:35.711Z,85
2022-12-31T01:26:07.932Z,85
2022-12-31T01:26:39.950Z,85
2022-12-31T01:27:12.130Z,85
2022-12-31T01:27:43.754Z,85
2022-12-31T01:28:15.869Z,85
2022-12-31T01:28:47.813Z,85
2022-12-31T01:29:19.809Z,85
2022-12-31T01:29:52.032Z,85
2022-12-31T01:30:08.435Z,84
2022-12-31T01:30:51.954Z,85
2022-12-31T01:31:23.876Z,85
2022-12-31T01:31:55.628Z,85
2022-12-31T01:32:27.585Z,85
2022-12-31T01:32:59.593Z,85
2022-12-31T01:33:31.796Z,85
2022-12-31T01:34:04.175Z,85
2022-12-31T01:34:35.405Z,85
2022-12-31T01:35:07.808Z,85
2022-12-31T01:35:39.557Z,85
2022-12-31T01:36:11.723Z,85
2022-12-31T01:36:43.468Z,85
2022-12-31T01:37:15.534Z,85
2022-12-31T01:37:47.328Z,85
2022-12-31T01:38:19.325Z,85
2022-12-31T01:38:51.618Z,85
2022-12-31T01:39:07.664Z,85
2022-12-31T01:39:39.291Z,85
2022-12-31T01:39:55.389Z,85
2022-12-31T01:40:27.642Z,85
2022-12-31T01:40:59.205Z,85
2022-12-31T01:41:31.399Z,85
2022-12-31T01:42:03.990Z,85
2022-12-31T01:42:35.218Z,85
2022-12-31T01:43:07.163Z,85
2022-12-31T01:43:23.243Z,85
2022-12-31T01:43:55.078Z,85
2022-12-31T01:44:39.225Z,85
2022-12-31T01:45:12.526Z,86
2022-12-31T01:45:43.009Z,86
2022-12-31T01:46:15.154Z,86
2022-12-31T01:46:47.038Z,86
2022-12-31T01:47:19.139Z,86
2022-12-31T01:47:50.854Z,86
2022-12-31T01:48:07.058Z,86
2022-12-31T01:48:50.966Z,86
2022-12-31T01:49:23.153Z,85
2022-12-31T01:49:54.943Z,85
2022-12-31T01:50:27.098Z,85
2022-12-31T01:50:58.899Z,85
2022-12-31T01:51:31.085Z,84
2022-12-31T01:52:03.954Z,84
2022-12-31T01:52:34.734Z,84
2022-12-31T01:53:06.785Z,84
2022-12-31T01:53:40.951Z,84
2022-12-31T01:54:10.601Z,84
2022-12-31T01:54:42.920Z,84
2022-12-31T01:55:14.911Z,84
2022-12-31T01:55:46.752Z,84
2022-12-31T01:56:18.799Z,84
2022-12-31T01:56:50.509Z,84
2022-12-31T01:57:06.776Z,84
2022-12-31T01:57:38.575Z,84
2022-12-31T01:57:54.663Z,84
2022-12-31T01:58:26.566Z,84
2022-12-31T01:58:58.492Z,84
2022-12-31T01:59:30.527Z,83
2022-12-31T02:00:05.532Z,83
2022-12-31T02:00:34.643Z,84
2022-12-31T02:01:06.508Z,83
2022-12-31T02:01:23.140Z,83
2022-12-31T02:01:54.554Z,82
2022-12-31T02:02:38.522Z,83
2022-12-31T02:03:10.254Z,82
2022-12-31T02:03:42.458Z,82
2022-12-31T02:04:14.209Z,82
2022-12-31T02:04:46.317Z,82
2022-12-31T02:05:18.412Z,82
2022-12-31T02:05:50.185Z,82
2022-12-31T02:06:06.410Z,82
2022-12-31T02:06:50.243Z,82
2022-12-31T02:07:22.565Z,82
2022-12-31T02:07:53.994Z,82
2022-12-31T02:08:26.072Z,82
2022-12-31T02:08:58.249Z,81
2022-12-31T02:09:30.162Z,81
2022-12-31T02:10:03.359Z,81
2022-12-31T02:10:33.965Z,81
2022-12-31T02:11:06.086Z,81
2022-12-31T02:11:38.113Z,81
2022-12-31T02:12:10.042Z,81
2022-12-31T02:12:42.136Z,81
2022-12-31T02:13:13.944Z,81
2022-12-31T02:13:46.018Z,81
2022-12-31T02:14:17.767Z,81
2022-12-31T02:14:49.881Z,82
2022-12-31T02:15:22.685Z,82
2022-12-31T02:15:53.812Z,82
2022-12-31T02:16:25.732Z,82
2022-12-31T02:16:57.777Z,82
2022-12-31T02:17:29.720Z,82
2022-12-31T02:18:02.598Z,82
2022-12-31T02:18:33.679Z,82
2022-12-31T02:19:05.697Z,82
2022-12-31T02:19:22.107Z,82
2022-12-31T02:19:53.436Z,82
2022-12-31T02:20:38.003Z,82
2022-12-31T02:21:09.549Z,82
2022-12-31T02:21:41.598Z,82
2022-12-31T02:22:13.627Z,82
2022-12-31T02:22:45.498Z,82
2022-12-31T02:23:17.450Z,82
2022-12-31T02:23:49.637Z,82
2022-12-31T02:24:21.843Z,82
2022-12-31T02:24:53.608Z,82
2022-12-31T02:25:25.604Z,82
2022-12-31T02:25:57.393Z,82
2022-12-31T02:26:29.491Z,82
2022-12-31T02:27:02.293Z,82
2022-12-31T02:27:33.616Z,82
2022-12-31T02:28:05.453Z,83
2022-12-31T02:28:21.628Z,83
2022-12-31T02:29:05.568Z,83
2022-12-31T02:29:37.384Z,83
2022-12-31T02:30:13.520Z,83
2022-12-31T02:30:41.345Z,83
2022-12-31T02:31:13.355Z,83
2022-12-31T02:31:45.266Z,83
2022-12-31T02:32:17.063Z,83
2022-12-31T02:32:49.313Z,83
2022-12-31T02:33:21.230Z,83
2022-12-31T02:33:53.376Z,83
2022-12-31T02:34:24.943Z,83
2022-12-31T02:34:56.926Z,83
2022-12-31T02:35:29.358Z,83
2022-12-31T02:36:01.557Z,83
2022-12-31T02:36:33.096Z,83
2022-12-31T02:37:05.300Z,83
2022-12-31T02:37:20.883Z,83
2022-12-31T02:37:52.956Z,83
2022-12-31T02:38:37.020Z,83
2022-12-31T02:39:08.805Z,83
2022-12-31T02:39:40.777Z,83
2022-12-31T02:40:13.258Z,83
2022-12-31T02:40:44.859Z,83
2022-12-31T02:41:16.724Z,82
2022-12-31T02:41:48.871Z,82
2022-12-31T02:42:05.331Z,82
2022-12-31T02:42:53.270Z,82
2022-12-31T02:43:20.534Z,82
2022-12-31T02:43:36.840Z,82
2022-12-31T02:44:08.708Z,82
2022-12-31T02:44:52.935Z,82
2022-12-31T02:45:24.970Z,82
2022-12-31T02:45:56.446Z,83
2022-12-31T02:46:28.666Z,82
2022-12-31T02:47:00.615Z,82
2022-12-31T02:47:32.874Z,82
2022-12-31T02:48:04.720Z,82
2022-12-31T02:48:20.817Z,82
2022-12-31T02:49:04.917Z,82
2022-12-31T02:49:20.688Z,82
2022-12-31T02:50:04.974Z,82
2022-12-31T02:50:36.418Z,82
2022-12-31T02:51:08.392Z,82
2022-12-31T02:51:40.236Z,82
2022-12-31T02:52:12.435Z,82
2022-12-31T02:52:44.320Z,82
2022-12-31T02:53:16.190Z,82
2022-12-31T02:53:48.203Z,82
2022-12-31T02:54:20.205Z,82
2022-12-31T02:54:52.466Z,82
2022-12-31T02:55:24.256Z,82
2022-12-31T02:55:56.026Z,82
2022-12-31T02:56:28.187Z,82
2022-12-31T02:57:00.230Z,82
2022-12-31T02:57:32.209Z,82
2022-12-31T02:58:04.544Z,82
2022-12-31T02:58:20.189Z,82
2022-12-31T02:58:52.056Z,82
2022-12-31T02:59:36.073Z,82
2022-12-31T03:00:13.205Z,82
2022-12-31T03:00:23.919Z,82
2022-12-31T03:00:56.164Z,82
2022-12-31T03:01:40.193Z,82
2022-12-31T03:02:11.977Z,82
2022-12-31T03:02:44.137Z,82
2022-12-31T03:03:15.712Z,82
2022-12-31T03:03:47.900Z,82
2022-12-31T03:04:19.768Z,82
2022-12-31T03:04:35.767Z,82
2022-12-31T03:05:08.028Z,82
2022-12-31T03:05:51.973Z,82
2022-12-31T03:06:23.733Z,82
2022-12-31T03:06:55.616Z,82
2022-12-31T03:07:27.521Z,82
2022-12-31T03:07:59.657Z,83
2022-12-31T03:08:31.978Z,83
2022-12-31T03:09:03.943Z,83
2022-12-31T03:09:19.654Z,82
2022-12-31T03:10:04.499Z,83
2022-12-31T03:10:19.771Z,83
2022-12-31T03:11:04.138Z,83
2022-12-31T03:11:35.599Z,82
2022-12-31T03:12:07.420Z,82
2022-12-31T03:12:39.400Z,81
2022-12-31T03:13:11.547Z,81
2022-12-31T03:13:43.466Z,82
2022-12-31T03:14:15.285Z,81
2022-12-31T03:14:47.353Z,81
2022-12-31T03:15:20.173Z,82
2022-12-31T03:15:51.602Z,81
2022-12-31T03:16:23.300Z,81
2022-12-31T03:16:55.259Z,82
2022-12-31T03:17:27.169Z,81
2022-12-31T03:17:59.386Z,82
2022-12-31T03:18:31.227Z,82
2022-12-31T03:19:03.916Z,82
2022-12-31T03:19:19.339Z,82
2022-12-31T03:19:51.022Z,82
2022-12-31T03:20:35.438Z,81
2022-12-31T03:21:07.037Z,81
2022-12-31T03:21:39.061Z,81
2022-12-31T03:22:11.184Z,81
2022-12-31T03:22:43.097Z,80
2022-12-31T03:23:14.973Z,80
2022-12-31T03:23:47.004Z,80
2022-12-31T03:24:19.091Z,80
2022-12-31T03:24:50.987Z,80
2022-12-31T03:25:23.204Z,80
2022-12-31T03:25:54.810Z,80
2022-12-31T03:26:26.872Z,80
2022-12-31T03:26:59.100Z,80
2022-12-31T03:27:30.834Z,80
2022-12-31T03:28:03.507Z,79
2022-12-31T03:28:34.824Z,79
2022-12-31T03:29:06.927Z,79
2022-12-31T03:29:38.765Z,79
2022-12-31T03:30:13.192Z,79
2022-12-31T03:30:42.947Z,79
2022-12-31T03:31:14.899Z,80
2022-12-31T03:31:46.686Z,80
2022-12-31T03:32:18.623Z,80
2022-12-31T03:32:50.614Z,80
2022-12-31T03:33:22.769Z,79
2022-12-31T03:33:54.412Z,79
2022-12-31T03:34:26.524Z,79
2022-12-31T03:34:58.623Z,78
2022-12-31T03:35:30.892Z,78
2022-12-31T03:36:03.341Z,78
2022-12-31T03:36:18.552Z,78
2022-12-31T03:36:50.328Z,78
2022-12-31T03:37:34.510Z,79
2022-12-31T03:38:06.226Z,78
2022-12-31T03:38:38.352Z,78
2022-12-31T03:39:10.318Z,79
2022-12-31T03:39:42.528Z,79
2022-12-31T03:40:14.590Z,79
2022-12-31T03:40:46.332Z,79
2022-12-31T03:41:18.325Z,79
2022-12-31T03:41:50.246Z,78
2022-12-31T03:42:22.361Z,79
2022-12-31T03:42:54.120Z,79
2022-12-31T03:43:26.149Z,79
2022-12-31T03:43:58.314Z,78
2022-12-31T03:44:30.074Z,78
2022-12-31T03:45:05.486Z,78
2022-12-31T03:45:19.200Z,78
2022-12-31T03:46:02.976Z,79
2022-12-31T03:46:34.116Z,79
2022-12-31T03:47:06.051Z,79
2022-12-31T03:47:38.190Z,79
2022-12-31T03:48:12.609Z,79
2022-12-31T03:48:42.072Z,79
2022-12-31T03:49:13.939Z,79
2022-12-31T03:49:45.781Z,78
2022-12-31T03:50:18.264Z,79
2022-12-31T03:50:50.024Z,79
2022-12-31T03:51:21.864Z,78
2022-12-31T03:51:53.824Z,79
2022-12-31T03:52:25.804Z,79
2022-12-31T03:52:57.774Z,79
2022-12-31T03:53:29.790Z,79
2022-12-31T03:54:02.630Z,79
2022-12-31T03:54:33.678Z,79
2022-12-31T03:55:06.238Z,79
2022-12-31T03:55:37.617Z,78
2022-12-31T03:56:09.609Z,78
2022-12-31T03:56:41.993Z,79
2022-12-31T03:57:13.651Z,79
2022-12-31T03:57:45.468Z,79
2022-12-31T03:58:02.436Z,79
2022-12-31T03:58:45.567Z,79
2022-12-31T03:59:17.947Z,79
2022-12-31T03:59:49.754Z,79
2022-12-31T04:00:21.995Z,79
2022-12-31T04:00:53.549Z,79
2022-12-31T04:01:25.593Z,79
2022-12-31T04:01:57.524Z,79
2022-12-31T04:02:29.690Z,79
2022-12-31T04:03:02.262Z,79
2022-12-31T04:03:33.505Z,79
2022-12-31T04:04:06.163Z,79
2022-12-31T04:04:37.163Z,79
2022-12-31T04:05:09.628Z,79
2022-12-31T04:05:41.501Z,79
2022-12-31T04:06:13.358Z,78
2022-12-31T04:06:45.120Z,78
2022-12-31T04:07:01.971Z,78
2022-12-31T04:07:33.601Z,79
2022-12-31T04:08:17.036Z,79
2022-12-31T04:08:49.173Z,79
2022-12-31T04:09:21.005Z,79
2022-12-31T04:09:53.184Z,79
2022-12-31T04:10:25.280Z,79
2022-12-31T04:10:57.106Z,79
2022-12-31T04:11:29.095Z,79
2022-12-31T04:12:01.413Z,79
2022-12-31T04:12:17.040Z,79
2022-12-31T04:12:48.889Z,78
2022-12-31T04:13:33.196Z,78
2022-12-31T04:14:04.935Z,78
2022-12-31T04:14:36.757Z,79
2022-12-31T04:15:09.744Z,78
2022-12-31T04:15:40.977Z,78
2022-12-31T04:16:12.701Z,78
2022-12-31T04:16:44.846Z,78
2022-12-31T04:17:00.867Z,78
2022-12-31T04:17:44.809Z,78
2022-12-31T04:18:16.733Z,78
2022-12-31T04:18:48.599Z,78
2022-12-31T04:19:20.841Z,78
2022-12-31T04:19:52.832Z,78
2022-12-31T04:20:24.903Z,79
2022-12-31T04:20:56.490Z,78
2022-12-31T04:21:34.673Z,78
2022-12-31T04:22:01.005Z,78
2022-12-31T04:22:32.922Z,78
2022-12-31T04:23:04.493Z,78
2022-12-31T04:23:36.430Z,78
2022-12-31T04:24:08.484Z,78
2022-12-31T04:24:40.664Z,78
2022-12-31T04:25:12.651Z,78
2022-12-31T04:25:44.422Z,78
2022-12-31T04:26:00.687Z,78
2022-12-31T04:26:32.650Z,78
2022-12-31T04:26:48.413Z,78
2022-12-31T04:27:20.306Z,78
2022-12-31T04:27:52.599Z,78
2022-12-31T04:28:24.337Z,79
2022-12-31T04:28:56.352Z,79
2022-12-31T04:29:28.131Z,79
2022-12-31T04:30:01.253Z,79
2022-12-31T04:30:32.610Z,78
2022-12-31T04:31:04.320Z,78
2022-12-31T04:31:36.066Z,78
2022-12-31T04:32:08.227Z,79
2022-12-31T04:32:40.123Z,79
2022-12-31T04:33:12.338Z,79
2022-12-31T04:33:43.946Z,79
2022-12-31T04:34:00.450Z,79
2022-12-31T04:34:44.043Z,79
2022-12-31T04:35:16.295Z,79
2022-12-31T04:35:48.205Z,79
2022-12-31T04:36:19.899Z,78
2022-12-31T04:36:51.961Z,78
2022-12-31T04:37:24.064Z,78
2022-12-31T04:37:55.905Z,78
2022-12-31T04:38:27.734Z,79
2022-12-31T04:38:59.934Z,79
2022-12-31T04:39:15.918Z,79
2022-12-31T04:40:05.364Z,79
2022-12-31T04:40:32.334Z,79
2022-12-31T04:41:04.159Z,79
2022-12-31T04:41:35.697Z,79
2022-12-31T04:42:07.848Z,79
2022-12-31T04:42:39.772Z,79
2022-12-31T04:43:11.845Z,78
2022-12-31T04:43:43.646Z,78
2022-12-31T04:44:15.677Z,78
2022-12-31T04:44:47.625Z,79
2022-12-31T04:45:19.906Z,79
2022-12-31T04:45:51.703Z,79
2022-12-31T04:46:23.677Z,79
2022-12-31T04:46:55.623Z,79
2022-12-31T04:47:27.427Z,79
2022-12-31T04:47:59.593Z,79
2022-12-31T04:48:31.703Z,79
2022-12-31T04:49:04.263Z,79
2022-12-31T04:49:35.330Z,79
2022-12-31T04:50:07.611Z,79
2022-12-31T04:50:39.564Z,79
2022-12-31T04:51:11.798Z,79
2022-12-31T04:51:43.369Z,79
2022-12-31T04:51:59.505Z,79
2022-12-31T04:52:43.276Z,80
2022-12-31T04:53:15.472Z,80
2022-12-31T04:53:47.211Z,79
2022-12-31T04:54:19.190Z,79
2022-12-31T04:54:51.391Z,79
2022-12-31T04:55:23.609Z,79
2022-12-31T04:55:55.206Z,79
2022-12-31T04:56:27.122Z,79
2022-12-31T04:56:59.129Z,79
2022-12-31T04:57:31.362Z,80
2022-12-31T04:58:03.831Z,80
2022-12-31T04:58:34.970Z,80
2022-12-31T04:59:06.998Z,80
2022-12-31T04:59:39.108Z,80
2022-12-31T05:00:12.413Z,80
2022-12-31T05:00:43.083Z,79
2022-12-31T05:00:59.532Z,79
2022-12-31T05:01:30.981Z,79
2022-12-31T05:01:47.193Z,79
2022-12-31T05:02:19.190Z,80
2022-12-31T05:02:51.130Z,80
2022-12-31T05:03:22.849Z,80
2022-12-31T05:03:54.812Z,80
2022-12-31T05:04:26.865Z,79
2022-12-31T05:04:58.859Z,79
2022-12-31T05:05:15.132Z,79
2022-12-31T05:05:46.891Z,79
2022-12-31T05:06:30.743Z,79
2022-12-31T05:07:03.723Z,80
2022-12-31T05:07:34.568Z,80
2022-12-31T05:08:06.602Z,80
2022-12-31T05:08:38.765Z,80
2022-12-31T05:09:10.697Z,80
2022-12-31T05:09:42.772Z,80
2022-12-31T05:10:15.076Z,80
2022-12-31T05:10:46.610Z,80
2022-12-31T05:11:18.648Z,80
2022-12-31T05:11:50.502Z,80
2022-12-31T05:12:22.537Z,81
2022-12-31T05:12:54.511Z,81
2022-12-31T05:13:32.769Z,81
2022-12-31T05:13:58.361Z,81
2022-12-31T05:14:14.494Z,81
2022-12-31T05:14:58.473Z,81
2022-12-31T05:15:30.915Z,80
2022-12-31T05:16:03.529Z,80
2022-12-31T05:16:34.220Z,80
2022-12-31T05:17:06.190Z,80
2022-12-31T05:17:38.275Z,80
2022-12-31T05:18:10.269Z,80
2022-12-31T05:18:42.407Z,81
2022-12-31T05:18:58.221Z,81
2022-12-31T05:19:30.227Z,81
2022-12-31T05:19:46.117Z,81
2022-12-31T05:20:18.667Z,81
2022-12-31T05:20:50.124Z,81
2022-12-31T05:21:22.205Z,80
2022-12-31T05:21:54.078Z,81
2022-12-31T05:22:26.061Z,80
2022-12-31T05:22:57.887Z,80
2022-12-31T05:23:30.077Z,81
2022-12-31T05:23:46.087Z,80
2022-12-31T05:24:30.047Z,81
2022-12-31T05:25:03.247Z,81
2022-12-31T05:25:33.831Z,81
2022-12-31T05:26:05.897Z,81
2022-12-31T05:26:37.963Z,80
2022-12-31T05:27:09.931Z,81
2022-12-31T05:27:42.068Z,81
2022-12-31T05:27:57.945Z,81
2022-12-31T05:28:41.948Z,81
2022-12-31T05:29:13.697Z,81
2022-12-31T05:29:45.847Z,81
2022-12-31T05:30:18.749Z,81
2022-12-31T05:30:49.760Z,81
2022-12-31T05:31:21.813Z,81
2022-12-31T05:31:53.845Z,81
2022-12-31T05:32:25.535Z,81
2022-12-31T05:32:57.603Z,81
2022-12-31T05:33:29.703Z,81
2022-12-31T05:34:02.440Z,81
2022-12-31T05:34:33.475Z,81
2022-12-31T05:35:05.765Z,81
2022-12-31T05:35:37.408Z,81
2022-12-31T05:36:09.599Z,81
2022-12-31T05:36:41.338Z,81
2022-12-31T05:36:58.000Z,81
2022-12-31T05:37:29.545Z,81
2022-12-31T05:38:13.421Z,81
2022-12-31T05:38:45.516Z,81
2022-12-31T05:39:17.180Z,81
2022-12-31T05:39:49.330Z,81
2022-12-31T05:40:21.953Z,81
2022-12-31T05:40:53.536Z,81
2022-12-31T05:41:25.239Z,81
2022-12-31T05:41:57.227Z,81
2022-12-31T05:42:13.277Z,81
2022-12-31T05:42:45.251Z,81
2022-12-31T05:43:29.224Z,81
2022-12-31T05:44:01.193Z,81
2022-12-31T05:44:33.128Z,81
2022-12-31T05:45:12.227Z,81
2022-12-31T05:45:37.148Z,81
2022-12-31T05:46:09.259Z,81
2022-12-31T05:46:41.031Z,81
2022-12-31T05:47:13.181Z,81
2022-12-31T05:47:45.038Z,81
2022-12-31T05:48:16.775Z,81
2022-12-31T05:48:49.066Z,81
2022-12-31T05:49:20.878Z,81
2022-12-31T05:49:52.949Z,81
2022-12-31T05:50:29.659Z,81
2022-12-31T05:50:56.810Z,81
2022-12-31T05:51:13.129Z,81
2022-12-31T05:51:56.940Z,81
2022-12-31T05:52:28.877Z,81
2022-12-31T05:53:00.807Z,81
2022-12-31T05:53:32.899Z,81
2022-12-31T05:54:04.986Z,81
2022-12-31T05:54:36.830Z,81
2022-12-31T05:55:08.930Z,82
2022-12-31T05:55:40.647Z,82
2022-12-31T05:56:12.720Z,82
2022-12-31T05:56:44.752Z,82
2022-12-31T05:57:16.455Z,82
2022-12-31T05:57:49.290Z,82
2022-12-31T05:58:20.588Z,82
2022-12-31T05:58:52.785Z,82
2022-12-31T05:59:24.471Z,82
2022-12-31T05:59:56.434Z,82
2022-12-31T06:00:28.982Z,82
2022-12-31T06:01:00.644Z,82
2022-12-31T06:01:32.508Z,83
2022-12-31T06:02:04.848Z,82
2022-12-31T06:02:36.368Z,82
2022-12-31T06:03:08.621Z,82
2022-12-31T06:03:40.381Z,82
2022-12-31T06:03:56.413Z,82
2022-12-31T06:04:40.347Z,82
2022-12-31T06:04:56.325Z,82
2022-12-31T06:05:40.491Z,83
2022-12-31T06:06:12.434Z,83
2022-12-31T06:06:44.107Z,83
2022-12-31T06:07:16.198Z,83
2022-12-31T06:07:48.407Z,83
2022-12-31T06:08:20.164Z,83
2022-12-31T06:08:52.317Z,83
2022-12-31T06:09:24.076Z,83
2022-12-31T06:09:56.018Z,83
2022-12-31T06:10:28.558Z,83
2022-12-31T06:11:00.053Z,83
2022-12-31T06:11:31.994Z,83
2022-12-31T06:12:04.834Z,83
2022-12-31T06:12:36.068Z,82
2022-12-31T06:13:07.820Z,82
2022-12-31T06:13:39.994Z,82
2022-12-31T06:14:12.332Z,82
2022-12-31T06:14:45.905Z,82
2022-12-31T06:15:17.056Z,82
2022-12-31T06:15:47.989Z,82
2022-12-31T06:16:19.935Z,82
2022-12-31T06:16:51.964Z,82
2022-12-31T06:17:23.654Z,82
2022-12-31T06:17:55.735Z,82
2022-12-31T06:18:27.803Z,82
2022-12-31T06:18:59.804Z,82
2022-12-31T06:19:31.622Z,82
2022-12-31T06:20:10.518Z,82
2022-12-31T06:20:35.540Z,82
2022-12-31T06:21:07.714Z,82
2022-12-31T06:21:39.513Z,82
2022-12-31T06:21:55.637Z,82
2022-12-31T06:22:39.568Z,82
2022-12-31T06:23:11.727Z,82
2022-12-31T06:23:43.655Z,82
2022-12-31T06:24:15.482Z,82
2022-12-31T06:24:47.401Z,82
2022-12-31T06:25:19.646Z,82
2022-12-31T06:25:51.644Z,82
2022-12-31T06:26:23.607Z,82
2022-12-31T06:26:55.401Z,82
2022-12-31T06:27:11.445Z,82
2022-12-31T06:27:55.342Z,81
2022-12-31T06:28:27.388Z,82
2022-12-31T06:28:59.248Z,81
2022-12-31T06:29:31.282Z,81
2022-12-31T06:30:06.193Z,81
2022-12-31T06:30:35.141Z,81
2022-12-31T06:31:07.088Z,82
2022-12-31T06:31:39.245Z,82
2022-12-31T06:32:11.104Z,81
2022-12-31T06:32:43.279Z,81
2022-12-31T06:33:15.230Z,81
2022-12-31T06:33:46.944Z,81
2022-12-31T06:34:19.136Z,81
2022-12-31T06:34:51.150Z,81
2022-12-31T06:35:23.431Z,81
2022-12-31T06:35:54.975Z,81
2022-12-31T06:36:11.067Z,81
2022-12-31T06:36:42.959Z,81
2022-12-31T06:37:27.036Z,81
2022-12-31T06:37:58.871Z,81
2022-12-31T06:38:14.932Z,81
2022-12-31T06:38:46.921Z,81
2022-12-31T06:39:30.847Z,81
2022-12-31T06:40:04.160Z,81
2022-12-31T06:40:34.749Z,81
2022-12-31T06:41:06.646Z,81
2022-12-31T06:41:38.910Z,81
2022-12-31T06:42:10.809Z,81
2022-12-31T06:42:42.699Z,81
2022-12-31T06:43:14.632Z,81
2022-12-31T06:43:46.683Z,81
2022-12-31T06:44:18.782Z,81
2022-12-31T06:44:50.468Z,81
2022-12-31T06:45:25.472Z,81
2022-12-31T06:45:54.678Z,81
2022-12-31T06:46:26.554Z,81
2022-12-31T06:46:58.446Z,82
2022-12-31T06:47:30.583Z,82
2022-12-31T06:48:02.891Z,82
2022-12-31T06:48:34.520Z,82
2022-12-31T06:49:06.336Z,82
2022-12-31T06:49:38.398Z,82
2022-12-31T06:49:54.509Z,82
2022-12-31T06:50:26.468Z,82
2022-12-31T06:50:42.559Z,82
2022-12-31T06:51:17.188Z,82
2022-12-31T06:51:46.335Z,82
2022-12-31T06:52:18.399Z,82
2022-12-31T06:52:50.249Z,82
2022-12-31T06:53:22.491Z,82
2022-12-31T06:53:57.056Z,82
2022-12-31T06:54:26.194Z,82
2022-12-31T06:54:58.289Z,82
2022-12-31T06:55:30.564Z,81
2022-12-31T06:56:03.790Z,82
2022-12-31T06:56:35.077Z,82
2022-12-31T06:57:06.142Z,82
2022-12-31T06:57:37.994Z,82
2022-12-31T06:57:54.171Z,82
2022-12-31T06:58:38.026Z,82
2022-12-31T06:59:10.081Z,82
2022-12-31T06:59:41.994Z,82
2022-12-31T07:00:14.870Z,83
2022-12-31T07:00:45.978Z,83
2022-12-31T07:01:18.077Z,83
2022-12-31T07:01:50.184Z,83
2022-12-31T07:02:22.048Z,83
2022-12-31T07:02:54.009Z,83
2022-12-31T07:03:25.914Z,83
2022-12-31T07:03:57.901Z,83
2022-12-31T07:04:29.676Z,83
2022-12-31T07:05:02.670Z,83
2022-12-31T07:05:33.905Z,83
2022-12-31T07:06:05.929Z,83
2022-12-31T07:06:37.659Z,83
2022-12-31T07:07:09.727Z,82
2022-12-31T07:07:26.033Z,82
2022-12-31T07:08:09.796Z,82
2022-12-31T07:08:41.589Z,82
2022-12-31T07:09:13.646Z,82
2022-12-31T07:09:45.600Z,82
2022-12-31T07:10:17.856Z,82
2022-12-31T07:10:49.627Z,81
2022-12-31T07:11:21.623Z,81
2022-12-31T07:11:53.494Z,81
2022-12-31T07:12:25.609Z,81
2022-12-31T07:12:57.599Z,81
2022-12-31T07:13:29.545Z,81
2022-12-31T07:14:01.620Z,81
2022-12-31T07:14:33.633Z,81
2022-12-31T07:15:06.994Z,81
2022-12-31T07:15:37.268Z,81
2022-12-31T07:15:53.891Z,81
2022-12-31T07:16:37.292Z,81
2022-12-31T07:17:09.462Z,81
2022-12-31T07:17:41.412Z,80
2022-12-31T07:18:13.265Z,81
2022-12-31T07:18:45.361Z,81
2022-12-31T07:19:17.292Z,80
2022-12-31T07:19:55.455Z,80
2022-12-31T07:20:21.546Z,80
2022-12-31T07:20:53.424Z,80
2022-12-31T07:21:25.196Z,80
2022-12-31T07:21:57.219Z,80
2022-12-31T07:22:29.036Z,81
2022-12-31T07:23:01.448Z,80
2022-12-31T07:23:33.349Z,80
2022-12-31T07:24:05.765Z,81
2022-12-31T07:24:37.091Z,81
2022-12-31T07:24:53.294Z,81
2022-12-31T07:25:27.472Z,81
2022-12-31T07:25:41.117Z,81
2022-12-31T07:26:13.207Z,81
2022-12-31T07:26:45.112Z,81
2022-12-31T07:27:17.013Z,81